Erquelinnes, Belgium
Current Conditions -  °F | °C
As of 4:20 AM on Thursday 23 Oct 2014 (Local Time) from EBCI Reporting Station
Scattered Clouds Scattered Clouds  
Wind Chill:   Ceiling: Unl
Heat Index:   Visibility: 6mi
Dew Point:   Wind: 8mph
Humidity: 93%   Direction: 210°SSW
Pressure: 30.24"   Gusts: NA
Location:  50.31°N, 4.11°E
Report Text: EBCI 230220Z 21007KT 9999 FEW012 SCT044 07/06 Q1024 NOSIG
Loading
Personal Weather Stations






























Interactive Weather Map
Tropical Storm Tracking
New forecast layout! Learn more

10-Day Weather Forecast

Advertisements
Track Severe Weather on mobile